sensor_id;sensor_type;location;lat;lon;timestamp;P1;durP1;ratioP1;P2;durP2;ratioP2
1725;SDS011;41776;48.260;8.928;2022-07-29T00:01:19;2.30;;;2.10;;
1725;SDS011;41776;48.260;8.928;2022-07-29T00:03:45;1.90;;;1.70;;
1725;SDS011;41776;48.260;8.928;2022-07-29T00:06:12;1.65;;;1.55;;
1725;SDS011;41776;48.260;8.928;2022-07-29T00:08:39;1.85;;;1.60;;
1725;SDS011;41776;48.260;8.928;2022-07-29T00:11:06;2.08;;;1.75;;
1725;SDS011;41776;48.260;8.928;2022-07-29T00:13:32;1.73;;;1.58;;
1725;SDS011;41776;48.260;8.928;2022-07-29T00:16:00;2.92;;;1.40;;
1725;SDS011;41776;48.260;8.928;2022-07-29T00:18:26;3.40;;;1.30;;
1725;SDS011;41776;48.260;8.928;2022-07-29T00:20:53;2.17;;;1.20;;
1725;SDS011;41776;48.260;8.928;2022-07-29T00:23:20;1.73;;;1.40;;
1725;SDS011;41776;48.260;8.928;2022-07-29T00:25:46;4.78;;;1.20;;
1725;SDS011;41776;48.260;8.928;2022-07-29T00:28:13;1.60;;;1.30;;
1725;SDS011;41776;48.260;8.928;2022-07-29T00:30:39;1.75;;;1.10;;
1725;SDS011;41776;48.260;8.928;2022-07-29T00:33:09;2.10;;;1.10;;
1725;SDS011;41776;48.260;8.928;2022-07-29T00:35:35;4.72;;;1.33;;
1725;SDS011;41776;48.260;8.928;2022-07-29T00:38:11;1.38;;;1.27;;
1725;SDS011;41776;48.260;8.928;2022-07-29T00:40:38;1.70;;;1.35;;
1725;SDS011;41776;48.260;8.928;2022-07-29T00:43:05;1.70;;;1.25;;
1725;SDS011;41776;48.260;8.928;2022-07-29T00:45:32;1.40;;;1.30;;
1725;SDS011;41776;48.260;8.928;2022-07-29T00:47:58;1.85;;;1.20;;
1725;SDS011;41776;48.260;8.928;2022-07-29T00:50:26;2.38;;;1.90;;
1725;SDS011;41776;48.260;8.928;2022-07-29T00:52:53;3.00;;;1.30;;
1725;SDS011;41776;48.260;8.928;2022-07-29T00:55:20;2.10;;;1.75;;
1725;SDS011;41776;48.260;8.928;2022-07-29T00:57:46;1.48;;;1.38;;
1725;SDS011;41776;48.260;8.928;2022-07-29T01:00:15;5.38;;;1.70;;
1725;SDS011;41776;48.260;8.928;2022-07-29T01:02:43;2.70;;;1.70;;
1725;SDS011;41776;48.260;8.928;2022-07-29T01:05:10;2.88;;;1.83;;
1725;SDS011;41776;48.260;8.928;2022-07-29T01:07:39;4.70;;;1.90;;
1725;SDS011;41776;48.260;8.928;2022-07-29T01:10:06;3.47;;;1.98;;
1725;SDS011;41776;48.260;8.928;2022-07-29T01:12:35;3.17;;;2.13;;
1725;SDS011;41776;48.260;8.928;2022-07-29T01:15:04;2.22;;;2.03;;
1725;SDS011;41776;48.260;8.928;2022-07-29T01:17:33;4.78;;;2.63;;
1725;SDS011;41776;48.260;8.928;2022-07-29T01:20:06;2.22;;;2.03;;
1725;SDS011;41776;48.260;8.928;2022-07-29T01:22:38;4.38;;;2.55;;
1725;SDS011;41776;48.260;8.928;2022-07-29T01:25:23;2.85;;;2.30;;
1725;SDS011;41776;48.260;8.928;2022-07-29T01:31:04;5.18;;;2.38;;
1725;SDS011;41776;48.260;8.928;2022-07-29T01:33:33;4.60;;;2.03;;
1725;SDS011;41776;48.260;8.928;2022-07-29T01:36:16;2.55;;;2.08;;
1725;SDS011;41776;48.260;8.928;2022-07-29T01:38:53;6.20;;;2.20;;
1725;SDS011;41776;48.260;8.928;2022-07-29T01:41:24;2.85;;;1.92;;
1725;SDS011;41776;48.260;8.928;2022-07-29T01:43:59;2.33;;;1.80;;
1725;SDS011;41776;48.260;8.928;2022-07-29T01:46:30;4.85;;;2.22;;
1725;SDS011;41776;48.260;8.928;2022-07-29T01:48:59;2.80;;;1.95;;
1725;SDS011;41776;48.260;8.928;2022-07-29T01:51:32;3.30;;;2.03;;
1725;SDS011;41776;48.260;8.928;2022-07-29T01:54:04;4.30;;;2.05;;
1725;SDS011;41776;48.260;8.928;2022-07-29T01:56:37;2.92;;;1.90;;
1725;SDS011;41776;48.260;8.928;2022-07-29T01:59:06;3.88;;;2.67;;
1725;SDS011;41776;48.260;8.928;2022-07-29T02:01:34;4.65;;;2.65;;
1725;SDS011;41776;48.260;8.928;2022-07-29T02:04:02;3.75;;;2.50;;
1725;SDS011;41776;48.260;8.928;2022-07-29T02:06:31;5.50;;;2.80;;
1725;SDS011;41776;48.260;8.928;2022-07-29T02:08:59;4.65;;;2.80;;
1725;SDS011;41776;48.260;8.928;2022-07-29T02:11:28;5.53;;;2.88;;
1725;SDS011;41776;48.260;8.928;2022-07-29T02:13:56;3.00;;;2.42;;
1725;SDS011;41776;48.260;8.928;2022-07-29T02:16:28;3.78;;;2.83;;
1725;SDS011;41776;48.260;8.928;2022-07-29T02:18:56;5.80;;;2.65;;
1725;SDS011;41776;48.260;8.928;2022-07-29T02:21:24;3.40;;;2.58;;
1725;SDS011;41776;48.260;8.928;2022-07-29T02:23:53;3.25;;;2.45;;
1725;SDS011;41776;48.260;8.928;2022-07-29T02:26:23;2.78;;;2.38;;
1725;SDS011;41776;48.260;8.928;2022-07-29T02:28:52;3.10;;;2.38;;
1725;SDS011;41776;48.260;8.928;2022-07-29T02:31:21;5.90;;;2.90;;
1725;SDS011;41776;48.260;8.928;2022-07-29T02:33:51;4.10;;;2.70;;
1725;SDS011;41776;48.260;8.928;2022-07-29T02:36:21;3.15;;;2.33;;
1725;SDS011;41776;48.260;8.928;2022-07-29T02:38:48;4.97;;;2.85;;
1725;SDS011;41776;48.260;8.928;2022-07-29T02:41:17;3.42;;;2.20;;
1725;SDS011;41776;48.260;8.928;2022-07-29T02:43:46;7.85;;;2.35;;
1725;SDS011;41776;48.260;8.928;2022-07-29T02:46:16;3.45;;;2.60;;
1725;SDS011;41776;48.260;8.928;2022-07-29T02:48:48;4.40;;;2.58;;
1725;SDS011;41776;48.260;8.928;2022-07-29T02:51:23;2.95;;;2.30;;
1725;SDS011;41776;48.260;8.928;2022-07-29T02:53:54;3.88;;;2.65;;
1725;SDS011;41776;48.260;8.928;2022-07-29T02:56:28;8.40;;;2.85;;
1725;SDS011;41776;48.260;8.928;2022-07-29T02:59:01;3.67;;;2.95;;
1725;SDS011;41776;48.260;8.928;2022-07-29T03:01:32;4.32;;;3.00;;
1725;SDS011;41776;48.260;8.928;2022-07-29T03:04:01;5.30;;;2.90;;
1725;SDS011;41776;48.260;8.928;2022-07-29T03:06:31;5.90;;;3.30;;
1725;SDS011;41776;48.260;8.928;2022-07-29T03:09:00;4.22;;;3.03;;
1725;SDS011;41776;48.260;8.928;2022-07-29T03:11:28;4.35;;;3.10;;
1725;SDS011;41776;48.260;8.928;2022-07-29T03:13:55;4.22;;;2.85;;
1725;SDS011;41776;48.260;8.928;2022-07-29T03:16:22;4.27;;;3.43;;
1725;SDS011;41776;48.260;8.928;2022-07-29T03:18:49;5.95;;;3.22;;
1725;SDS011;41776;48.260;8.928;2022-07-29T03:21:16;4.20;;;3.35;;
1725;SDS011;41776;48.260;8.928;2022-07-29T03:23:44;5.90;;;3.95;;
1725;SDS011;41776;48.260;8.928;2022-07-29T03:26:11;7.50;;;3.60;;
1725;SDS011;41776;48.260;8.928;2022-07-29T03:28:38;10.23;;;3.40;;
1725;SDS011;41776;48.260;8.928;2022-07-29T03:31:04;7.65;;;3.70;;
1725;SDS011;41776;48.260;8.928;2022-07-29T03:33:30;6.10;;;3.40;;
1725;SDS011;41776;48.260;8.928;2022-07-29T03:35:57;6.65;;;4.10;;
1725;SDS011;41776;48.260;8.928;2022-07-29T03:38:27;3.80;;;3.17;;
1725;SDS011;41776;48.260;8.928;2022-07-29T03:41:01;4.30;;;3.47;;
1725;SDS011;41776;48.260;8.928;2022-07-29T03:43:32;6.70;;;4.18;;
1725;SDS011;41776;48.260;8.928;2022-07-29T03:46:02;6.05;;;4.38;;
1725;SDS011;41776;48.260;8.928;2022-07-29T03:48:37;5.53;;;4.00;;
1725;SDS011;41776;48.260;8.928;2022-07-29T03:51:13;6.50;;;3.92;;
1725;SDS011;41776;48.260;8.928;2022-07-29T03:53:42;6.87;;;4.03;;
1725;SDS011;41776;48.260;8.928;2022-07-29T03:56:16;8.95;;;4.00;;
1725;SDS011;41776;48.260;8.928;2022-07-29T03:58:46;8.63;;;4.10;;
1725;SDS011;41776;48.260;8.928;2022-07-29T04:01:14;8.65;;;4.22;;
1725;SDS011;41776;48.260;8.928;2022-07-29T04:03:42;6.50;;;5.00;;
1725;SDS011;41776;48.260;8.928;2022-07-29T04:06:12;7.72;;;5.13;;
1725;SDS011;41776;48.260;8.928;2022-07-29T04:08:38;7.70;;;4.53;;
1725;SDS011;41776;48.260;8.928;2022-07-29T04:11:05;10.17;;;4.90;;
1725;SDS011;41776;48.260;8.928;2022-07-29T04:13:34;8.80;;;4.90;;
1725;SDS011;41776;48.260;8.928;2022-07-29T04:16:00;9.63;;;4.83;;
1725;SDS011;41776;48.260;8.928;2022-07-29T04:18:27;7.30;;;4.47;;
1725;SDS011;41776;48.260;8.928;2022-07-29T04:20:53;8.55;;;4.95;;
1725;SDS011;41776;48.260;8.928;2022-07-29T04:23:20;6.20;;;4.35;;
1725;SDS011;41776;48.260;8.928;2022-07-29T04:25:47;11.98;;;4.88;;
1725;SDS011;41776;48.260;8.928;2022-07-29T04:28:13;8.98;;;5.38;;
1725;SDS011;41776;48.260;8.928;2022-07-29T04:30:41;7.93;;;5.07;;
1725;SDS011;41776;48.260;8.928;2022-07-29T04:33:07;9.30;;;4.53;;
1725;SDS011;41776;48.260;8.928;2022-07-29T04:35:38;10.32;;;5.43;;
1725;SDS011;41776;48.260;8.928;2022-07-29T04:38:05;8.00;;;5.18;;
1725;SDS011;41776;48.260;8.928;2022-07-29T04:40:32;10.38;;;5.15;;
1725;SDS011;41776;48.260;8.928;2022-07-29T04:43:02;5.85;;;4.35;;
1725;SDS011;41776;48.260;8.928;2022-07-29T04:45:28;7.88;;;5.53;;
1725;SDS011;41776;48.260;8.928;2022-07-29T04:47:56;11.73;;;5.95;;
1725;SDS011;41776;48.260;8.928;2022-07-29T04:50:23;8.15;;;5.80;;
1725;SDS011;41776;48.260;8.928;2022-07-29T04:52:49;6.90;;;5.30;;
1725;SDS011;41776;48.260;8.928;2022-07-29T04:55:16;7.70;;;5.00;;
1725;SDS011;41776;48.260;8.928;2022-07-29T04:57:42;9.68;;;6.20;;
1725;SDS011;41776;48.260;8.928;2022-07-29T05:00:09;8.13;;;5.32;;
1725;SDS011;41776;48.260;8.928;2022-07-29T05:02:36;9.32;;;6.18;;
1725;SDS011;41776;48.260;8.928;2022-07-29T05:05:04;11.20;;;5.07;;
1725;SDS011;41776;48.260;8.928;2022-07-29T05:07:32;7.30;;;5.53;;
1725;SDS011;41776;48.260;8.928;2022-07-29T05:09:58;9.80;;;5.80;;
1725;SDS011;41776;48.260;8.928;2022-07-29T05:12:25;6.78;;;5.10;;
1725;SDS011;41776;48.260;8.928;2022-07-29T05:14:52;8.43;;;5.32;;
1725;SDS011;41776;48.260;8.928;2022-07-29T05:17:19;7.43;;;5.25;;
1725;SDS011;41776;48.260;8.928;2022-07-29T05:19:48;14.18;;;5.32;;
1725;SDS011;41776;48.260;8.928;2022-07-29T05:22:23;10.30;;;5.53;;
1725;SDS011;41776;48.260;8.928;2022-07-29T05:24:49;9.07;;;5.35;;
1725;SDS011;41776;48.260;8.928;2022-07-29T05:27:16;9.00;;;5.40;;
1725;SDS011;41776;48.260;8.928;2022-07-29T05:29:42;7.65;;;4.88;;
1725;SDS011;41776;48.260;8.928;2022-07-29T05:32:09;9.68;;;4.43;;
1725;SDS011;41776;48.260;8.928;2022-07-29T05:34:36;9.45;;;4.45;;
1725;SDS011;41776;48.260;8.928;2022-07-29T05:37:03;7.20;;;3.90;;
1725;SDS011;41776;48.260;8.928;2022-07-29T05:39:31;9.40;;;4.20;;
1725;SDS011;41776;48.260;8.928;2022-07-29T05:41:58;5.55;;;3.90;;
1725;SDS011;41776;48.260;8.928;2022-07-29T05:44:24;4.70;;;3.90;;
1725;SDS011;41776;48.260;8.928;2022-07-29T05:46:53;5.20;;;3.45;;
1725;SDS011;41776;48.260;8.928;2022-07-29T05:49:20;7.97;;;3.22;;
1725;SDS011;41776;48.260;8.928;2022-07-29T05:51:46;7.85;;;3.08;;
1725;SDS011;41776;48.260;8.928;2022-07-29T05:54:14;4.40;;;3.20;;
1725;SDS011;41776;48.260;8.928;2022-07-29T05:56:42;4.07;;;2.88;;
1725;SDS011;41776;48.260;8.928;2022-07-29T05:59:08;5.55;;;3.13;;
1725;SDS011;41776;48.260;8.928;2022-07-29T06:01:35;9.07;;;2.80;;
1725;SDS011;41776;48.260;8.928;2022-07-29T06:04:04;7.28;;;2.80;;
1725;SDS011;41776;48.260;8.928;2022-07-29T06:06:31;5.53;;;2.70;;
1725;SDS011;41776;48.260;8.928;2022-07-29T06:08:58;3.42;;;2.20;;
1725;SDS011;41776;48.260;8.928;2022-07-29T06:11:27;3.45;;;2.10;;
1725;SDS011;41776;48.260;8.928;2022-07-29T06:14:02;5.13;;;2.60;;
1725;SDS011;41776;48.260;8.928;2022-07-29T06:16:31;7.97;;;2.60;;
1725;SDS011;41776;48.260;8.928;2022-07-29T06:18:58;3.15;;;2.13;;
1725;SDS011;41776;48.260;8.928;2022-07-29T06:21:31;5.70;;;2.40;;
1725;SDS011;41776;48.260;8.928;2022-07-29T06:23:58;5.95;;;2.30;;
1725;SDS011;41776;48.260;8.928;2022-07-29T06:26:25;6.28;;;2.08;;
1725;SDS011;41776;48.260;8.928;2022-07-29T06:28:52;6.78;;;2.15;;
1725;SDS011;41776;48.260;8.928;2022-07-29T06:31:23;10.82;;;2.38;;
1725;SDS011;41776;48.260;8.928;2022-07-29T06:33:49;3.60;;;2.00;;
1725;SDS011;41776;48.260;8.928;2022-07-29T06:36:16;5.60;;;2.10;;
1725;SDS011;41776;48.260;8.928;2022-07-29T06:38:45;3.05;;;2.00;;
1725;SDS011;41776;48.260;8.928;2022-07-29T06:41:11;3.30;;;1.95;;
1725;SDS011;41776;48.260;8.928;2022-07-29T06:43:43;4.03;;;1.90;;
1725;SDS011;41776;48.260;8.928;2022-07-29T06:46:12;3.20;;;1.90;;
1725;SDS011;41776;48.260;8.928;2022-07-29T06:48:41;4.35;;;1.70;;
1725;SDS011;41776;48.260;8.928;2022-07-29T06:51:12;3.55;;;1.70;;
1725;SDS011;41776;48.260;8.928;2022-07-29T06:53:39;3.17;;;1.60;;
1725;SDS011;41776;48.260;8.928;2022-07-29T06:56:09;4.00;;;1.92;;
1725;SDS011;41776;48.260;8.928;2022-07-29T06:58:37;2.95;;;1.60;;
1725;SDS011;41776;48.260;8.928;2022-07-29T07:01:04;4.63;;;2.28;;
1725;SDS011;41776;48.260;8.928;2022-07-29T07:03:32;3.85;;;1.95;;
1725;SDS011;41776;48.260;8.928;2022-07-29T07:06:02;3.20;;;1.98;;
1725;SDS011;41776;48.260;8.928;2022-07-29T07:08:28;2.03;;;1.60;;
1725;SDS011;41776;48.260;8.928;2022-07-29T07:10:55;6.55;;;1.98;;
1725;SDS011;41776;48.260;8.928;2022-07-29T07:13:21;4.90;;;1.60;;
1725;SDS011;41776;48.260;8.928;2022-07-29T07:15:48;1.50;;;1.40;;
1725;SDS011;41776;48.260;8.928;2022-07-29T07:18:17;4.30;;;1.80;;
1725;SDS011;41776;48.260;8.928;2022-07-29T07:20:44;3.67;;;1.98;;
1725;SDS011;41776;48.260;8.928;2022-07-29T07:23:15;2.03;;;1.40;;
1725;SDS011;41776;48.260;8.928;2022-07-29T07:25:41;3.67;;;1.98;;
1725;SDS011;41776;48.260;8.928;2022-07-29T07:28:08;3.75;;;1.92;;
1725;SDS011;41776;48.260;8.928;2022-07-29T07:30:34;4.65;;;1.65;;
1725;SDS011;41776;48.260;8.928;2022-07-29T07:33:01;2.80;;;1.70;;
1725;SDS011;41776;48.260;8.928;2022-07-29T07:35:28;4.18;;;1.67;;
1725;SDS011;41776;48.260;8.928;2022-07-29T07:37:54;4.32;;;1.92;;
1725;SDS011;41776;48.260;8.928;2022-07-29T07:40:22;6.35;;;2.00;;
1725;SDS011;41776;48.260;8.928;2022-07-29T07:42:50;5.10;;;1.95;;
1725;SDS011;41776;48.260;8.928;2022-07-29T07:45:16;5.05;;;1.85;;
1725;SDS011;41776;48.260;8.928;2022-07-29T07:47:43;5.65;;;2.17;;
1725;SDS011;41776;48.260;8.928;2022-07-29T07:50:10;2.95;;;1.83;;
1725;SDS011;41776;48.260;8.928;2022-07-29T07:52:45;3.83;;;1.90;;
1725;SDS011;41776;48.260;8.928;2022-07-29T07:55:12;9.52;;;2.20;;
1725;SDS011;41776;48.260;8.928;2022-07-29T07:57:40;6.80;;;2.05;;
1725;SDS011;41776;48.260;8.928;2022-07-29T08:00:07;3.58;;;2.05;;
1725;SDS011;41776;48.260;8.928;2022-07-29T08:02:34;2.83;;;1.92;;
1725;SDS011;41776;48.260;8.928;2022-07-29T08:05:00;2.78;;;1.67;;
1725;SDS011;41776;48.260;8.928;2022-07-29T08:07:27;5.95;;;1.98;;
1725;SDS011;41776;48.260;8.928;2022-07-29T08:09:54;5.45;;;2.53;;
1725;SDS011;41776;48.260;8.928;2022-07-29T08:12:20;7.60;;;2.30;;
1725;SDS011;41776;48.260;8.928;2022-07-29T08:14:48;4.65;;;2.08;;
1725;SDS011;41776;48.260;8.928;2022-07-29T08:17:14;3.47;;;2.08;;
1725;SDS011;41776;48.260;8.928;2022-07-29T08:19:41;3.83;;;2.00;;
1725;SDS011;41776;48.260;8.928;2022-07-29T08:22:07;7.10;;;1.98;;
1725;SDS011;41776;48.260;8.928;2022-07-29T08:24:34;5.30;;;2.17;;
1725;SDS011;41776;48.260;8.928;2022-07-29T08:27:17;2.92;;;1.80;;
1725;SDS011;41776;48.260;8.928;2022-07-29T08:29:44;2.92;;;2.28;;
1725;SDS011;41776;48.260;8.928;2022-07-29T08:32:12;3.70;;;2.35;;
1725;SDS011;41776;48.260;8.928;2022-07-29T08:34:38;5.25;;;2.50;;
1725;SDS011;41776;48.260;8.928;2022-07-29T08:37:05;5.30;;;1.88;;
1725;SDS011;41776;48.260;8.928;2022-07-29T08:39:31;5.10;;;2.30;;
1725;SDS011;41776;48.260;8.928;2022-07-29T08:41:57;4.63;;;2.15;;
1725;SDS011;41776;48.260;8.928;2022-07-29T08:44:24;7.78;;;1.90;;
1725;SDS011;41776;48.260;8.928;2022-07-29T08:46:51;4.88;;;2.00;;
1725;SDS011;41776;48.260;8.928;2022-07-29T08:49:19;4.45;;;2.35;;
1725;SDS011;41776;48.260;8.928;2022-07-29T08:51:46;2.80;;;1.95;;
1725;SDS011;41776;48.260;8.928;2022-07-29T08:54:17;4.78;;;2.10;;
1725;SDS011;41776;48.260;8.928;2022-07-29T08:56:44;3.67;;;2.15;;
1725;SDS011;41776;48.260;8.928;2022-07-29T08:59:14;9.30;;;2.67;;
1725;SDS011;41776;48.260;8.928;2022-07-29T09:01:41;2.90;;;2.00;;
1725;SDS011;41776;48.260;8.928;2022-07-29T09:04:10;5.05;;;2.50;;
1725;SDS011;41776;48.260;8.928;2022-07-29T09:06:41;3.15;;;2.20;;
1725;SDS011;41776;48.260;8.928;2022-07-29T09:09:10;7.35;;;2.40;;
1725;SDS011;41776;48.260;8.928;2022-07-29T09:11:36;3.33;;;2.15;;
1725;SDS011;41776;48.260;8.928;2022-07-29T09:14:03;9.70;;;2.17;;
1725;SDS011;41776;48.260;8.928;2022-07-29T09:19:19;7.45;;;2.20;;
1725;SDS011;41776;48.260;8.928;2022-07-29T09:21:51;4.80;;;2.15;;
1725;SDS011;41776;48.260;8.928;2022-07-29T09:24:24;4.57;;;1.90;;
1725;SDS011;41776;48.260;8.928;2022-07-29T09:26:52;8.68;;;2.42;;
1725;SDS011;41776;48.260;8.928;2022-07-29T09:29:19;5.53;;;2.20;;
1725;SDS011;41776;48.260;8.928;2022-07-29T09:31:47;5.68;;;2.10;;
1725;SDS011;41776;48.260;8.928;2022-07-29T09:34:16;5.30;;;1.65;;
1725;SDS011;41776;48.260;8.928;2022-07-29T09:36:47;4.18;;;1.80;;
1725;SDS011;41776;48.260;8.928;2022-07-29T09:39:26;8.98;;;1.80;;
1725;SDS011;41776;48.260;8.928;2022-07-29T09:41:54;3.92;;;1.92;;
1725;SDS011;41776;48.260;8.928;2022-07-29T09:44:22;3.65;;;1.60;;
1725;SDS011;41776;48.260;8.928;2022-07-29T09:46:54;6.45;;;2.05;;
1725;SDS011;41776;48.260;8.928;2022-07-29T09:49:21;4.80;;;1.90;;
1725;SDS011;41776;48.260;8.928;2022-07-29T09:51:58;4.43;;;1.80;;
1725;SDS011;41776;48.260;8.928;2022-07-29T09:54:27;6.20;;;1.90;;
1725;SDS011;41776;48.260;8.928;2022-07-29T09:56:54;5.60;;;1.98;;
1725;SDS011;41776;48.260;8.928;2022-07-29T09:59:21;4.53;;;2.20;;
1725;SDS011;41776;48.260;8.928;2022-07-29T10:01:51;5.35;;;2.50;;
1725;SDS011;41776;48.260;8.928;2022-07-29T10:04:18;4.95;;;1.95;;
1725;SDS011;41776;48.260;8.928;2022-07-29T10:06:55;2.13;;;1.80;;
1725;SDS011;41776;48.260;8.928;2022-07-29T10:09:23;5.25;;;2.00;;
1725;SDS011;41776;48.260;8.928;2022-07-29T10:12:03;4.50;;;1.85;;
1725;SDS011;41776;48.260;8.928;2022-07-29T10:14:31;3.85;;;2.10;;
1725;SDS011;41776;48.260;8.928;2022-07-29T10:16:59;5.13;;;1.95;;
1725;SDS011;41776;48.260;8.928;2022-07-29T10:19:26;3.20;;;1.90;;
1725;SDS011;41776;48.260;8.928;2022-07-29T10:21:54;3.08;;;1.60;;
1725;SDS011;41776;48.260;8.928;2022-07-29T10:24:22;5.80;;;2.05;;
1725;SDS011;41776;48.260;8.928;2022-07-29T10:26:49;4.68;;;1.80;;
1725;SDS011;41776;48.260;8.928;2022-07-29T10:29:17;4.68;;;2.10;;
1725;SDS011;41776;48.260;8.928;2022-07-29T10:31:47;6.07;;;2.20;;
1725;SDS011;41776;48.260;8.928;2022-07-29T10:34:25;3.85;;;2.00;;
1725;SDS011;41776;48.260;8.928;2022-07-29T10:37:02;4.30;;;2.35;;
1725;SDS011;41776;48.260;8.928;2022-07-29T10:39:38;3.88;;;2.05;;
1725;SDS011;41776;48.260;8.928;2022-07-29T10:42:18;6.28;;;2.13;;
1725;SDS011;41776;48.260;8.928;2022-07-29T10:44:48;3.95;;;1.80;;
1725;SDS011;41776;48.260;8.928;2022-07-29T10:47:21;4.53;;;1.77;;
1725;SDS011;41776;48.260;8.928;2022-07-29T10:49:55;5.50;;;1.90;;
1725;SDS011;41776;48.260;8.928;2022-07-29T10:52:23;2.83;;;1.70;;
1725;SDS011;41776;48.260;8.928;2022-07-29T10:54:53;3.28;;;1.75;;
1725;SDS011;41776;48.260;8.928;2022-07-29T10:57:25;7.90;;;2.30;;
1725;SDS011;41776;48.260;8.928;2022-07-29T11:02:58;4.50;;;1.90;;
1725;SDS011;41776;48.260;8.928;2022-07-29T11:05:26;7.07;;;2.05;;
1725;SDS011;41776;48.260;8.928;2022-07-29T11:10:45;8.80;;;2.00;;
1725;SDS011;41776;48.260;8.928;2022-07-29T11:13:11;3.40;;;2.00;;
1725;SDS011;41776;48.260;8.928;2022-07-29T11:15:52;4.85;;;1.70;;
1725;SDS011;41776;48.260;8.928;2022-07-29T11:18:19;5.03;;;2.00;;
1725;SDS011;41776;48.260;8.928;2022-07-29T11:20:46;6.88;;;1.92;;
1725;SDS011;41776;48.260;8.928;2022-07-29T11:23:19;3.45;;;1.83;;
1725;SDS011;41776;48.260;8.928;2022-07-29T11:28:42;4.95;;;1.80;;
1725;SDS011;41776;48.260;8.928;2022-07-29T11:31:19;8.80;;;1.70;;
1725;SDS011;41776;48.260;8.928;2022-07-29T11:33:57;4.60;;;1.83;;
1725;SDS011;41776;48.260;8.928;2022-07-29T11:39:42;2.88;;;1.73;;
1725;SDS011;41776;48.260;8.928;2022-07-29T11:45:09;5.30;;;1.73;;
1725;SDS011;41776;48.260;8.928;2022-07-29T11:47:42;3.42;;;2.03;;
1725;SDS011;41776;48.260;8.928;2022-07-29T11:50:15;3.28;;;1.67;;
1725;SDS011;41776;48.260;8.928;2022-07-29T11:52:44;5.80;;;2.13;;
1725;SDS011;41776;48.260;8.928;2022-07-29T11:55:14;7.40;;;2.13;;
1725;SDS011;41776;48.260;8.928;2022-07-29T11:57:45;4.15;;;1.70;;
1725;SDS011;41776;48.260;8.928;2022-07-29T12:00:20;5.28;;;2.20;;
1725;SDS011;41776;48.260;8.928;2022-07-29T12:02:49;4.07;;;2.15;;
1725;SDS011;41776;48.260;8.928;2022-07-29T12:05:17;4.53;;;1.90;;
1725;SDS011;41776;48.260;8.928;2022-07-29T12:07:44;4.68;;;1.90;;
1725;SDS011;41776;48.260;8.928;2022-07-29T12:10:10;9.80;;;2.22;;
1725;SDS011;41776;48.260;8.928;2022-07-29T12:12:37;4.50;;;2.22;;
1725;SDS011;41776;48.260;8.928;2022-07-29T12:15:11;3.45;;;2.10;;
1725;SDS011;41776;48.260;8.928;2022-07-29T12:17:39;3.88;;;2.13;;
1725;SDS011;41776;48.260;8.928;2022-07-29T12:20:07;4.07;;;2.42;;
1725;SDS011;41776;48.260;8.928;2022-07-29T12:22:35;3.15;;;1.88;;
1725;SDS011;41776;48.260;8.928;2022-07-29T12:25:04;2.75;;;2.10;;
1725;SDS011;41776;48.260;8.928;2022-07-29T12:27:32;4.90;;;2.20;;
1725;SDS011;41776;48.260;8.928;2022-07-29T12:30:00;4.47;;;2.10;;
1725;SDS011;41776;48.260;8.928;2022-07-29T12:32:31;4.63;;;1.98;;
1725;SDS011;41776;48.260;8.928;2022-07-29T12:34:59;6.53;;;2.33;;
1725;SDS011;41776;48.260;8.928;2022-07-29T12:37:29;6.20;;;2.42;;
1725;SDS011;41776;48.260;8.928;2022-07-29T12:39:56;3.83;;;2.47;;
1725;SDS011;41776;48.260;8.928;2022-07-29T12:42:22;5.32;;;2.10;;
1725;SDS011;41776;48.260;8.928;2022-07-29T12:44:49;3.95;;;1.90;;
1725;SDS011;41776;48.260;8.928;2022-07-29T12:47:16;4.43;;;2.15;;
1725;SDS011;41776;48.260;8.928;2022-07-29T12:49:44;5.82;;;2.30;;
1725;SDS011;41776;48.260;8.928;2022-07-29T12:52:23;7.50;;;2.75;;
1725;SDS011;41776;48.260;8.928;2022-07-29T12:54:51;7.53;;;2.30;;
1725;SDS011;41776;48.260;8.928;2022-07-29T12:57:18;4.30;;;2.35;;
1725;SDS011;41776;48.260;8.928;2022-07-29T12:59:44;8.10;;;2.22;;
1725;SDS011;41776;48.260;8.928;2022-07-29T13:02:20;7.50;;;2.30;;
1725;SDS011;41776;48.260;8.928;2022-07-29T13:04:54;4.00;;;2.05;;
1725;SDS011;41776;48.260;8.928;2022-07-29T13:07:23;2.95;;;2.05;;
1725;SDS011;41776;48.260;8.928;2022-07-29T13:09:52;3.97;;;2.00;;
1725;SDS011;41776;48.260;8.928;2022-07-29T13:12:19;3.92;;;2.25;;
1725;SDS011;41776;48.260;8.928;2022-07-29T13:14:46;5.35;;;2.10;;
1725;SDS011;41776;48.260;8.928;2022-07-29T13:17:14;5.32;;;2.58;;
1725;SDS011;41776;48.260;8.928;2022-07-29T13:19:43;7.88;;;2.25;;
1725;SDS011;41776;48.260;8.928;2022-07-29T13:22:12;9.43;;;2.00;;
1725;SDS011;41776;48.260;8.928;2022-07-29T13:24:49;5.25;;;2.00;;
1725;SDS011;41776;48.260;8.928;2022-07-29T13:27:18;9.95;;;2.30;;
1725;SDS011;41776;48.260;8.928;2022-07-29T13:29:48;4.47;;;1.80;;
1725;SDS011;41776;48.260;8.928;2022-07-29T13:32:16;3.33;;;1.75;;
1725;SDS011;41776;48.260;8.928;2022-07-29T13:34:43;5.82;;;2.00;;
1725;SDS011;41776;48.260;8.928;2022-07-29T13:37:09;4.93;;;1.80;;
1725;SDS011;41776;48.260;8.928;2022-07-29T13:39:36;4.93;;;2.00;;
1725;SDS011;41776;48.260;8.928;2022-07-29T13:42:03;4.80;;;1.52;;
1725;SDS011;41776;48.260;8.928;2022-07-29T13:44:31;5.78;;;1.75;;
1725;SDS011;41776;48.260;8.928;2022-07-29T13:46:57;4.57;;;1.77;;
1725;SDS011;41776;48.260;8.928;2022-07-29T13:49:24;4.60;;;1.52;;
1725;SDS011;41776;48.260;8.928;2022-07-29T13:51:51;11.55;;;2.00;;
1725;SDS011;41776;48.260;8.928;2022-07-29T13:54:17;4.47;;;1.90;;
1725;SDS011;41776;48.260;8.928;2022-07-29T13:56:44;8.50;;;2.22;;
1725;SDS011;41776;48.260;8.928;2022-07-29T13:59:10;2.50;;;2.00;;
1725;SDS011;41776;48.260;8.928;2022-07-29T14:01:38;6.03;;;1.98;;
1725;SDS011;41776;48.260;8.928;2022-07-29T14:04:07;3.05;;;1.60;;
1725;SDS011;41776;48.260;8.928;2022-07-29T14:06:33;3.42;;;1.58;;
1725;SDS011;41776;48.260;8.928;2022-07-29T14:09:00;8.13;;;2.10;;
1725;SDS011;41776;48.260;8.928;2022-07-29T14:11:26;4.38;;;1.67;;
1725;SDS011;41776;48.260;8.928;2022-07-29T14:13:53;6.35;;;1.67;;
1725;SDS011;41776;48.260;8.928;2022-07-29T14:16:19;4.22;;;1.80;;
1725;SDS011;41776;48.260;8.928;2022-07-29T14:18:47;9.27;;;1.90;;
1725;SDS011;41776;48.260;8.928;2022-07-29T14:21:13;3.90;;;1.98;;
1725;SDS011;41776;48.260;8.928;2022-07-29T14:23:40;2.95;;;1.80;;
1725;SDS011;41776;48.260;8.928;2022-07-29T14:26:07;7.25;;;2.25;;
1725;SDS011;41776;48.260;8.928;2022-07-29T14:28:33;3.80;;;1.70;;
1725;SDS011;41776;48.260;8.928;2022-07-29T14:31:00;3.25;;;1.90;;
1725;SDS011;41776;48.260;8.928;2022-07-29T14:33:26;2.92;;;1.98;;
1725;SDS011;41776;48.260;8.928;2022-07-29T14:35:54;4.70;;;1.90;;
1725;SDS011;41776;48.260;8.928;2022-07-29T14:38:20;7.63;;;1.80;;
1725;SDS011;41776;48.260;8.928;2022-07-29T14:40:47;4.15;;;2.30;;
1725;SDS011;41776;48.260;8.928;2022-07-29T14:43:13;2.45;;;1.60;;
1725;SDS011;41776;48.260;8.928;2022-07-29T14:45:40;4.78;;;2.00;;
1725;SDS011;41776;48.260;8.928;2022-07-29T14:48:07;3.95;;;2.08;;
1725;SDS011;41776;48.260;8.928;2022-07-29T14:50:33;6.75;;;2.03;;
1725;SDS011;41776;48.260;8.928;2022-07-29T14:53:01;3.33;;;1.77;;
1725;SDS011;41776;48.260;8.928;2022-07-29T14:55:27;4.72;;;2.10;;
1725;SDS011;41776;48.260;8.928;2022-07-29T14:57:54;9.80;;;2.10;;
1725;SDS011;41776;48.260;8.928;2022-07-29T15:00:21;2.67;;;2.00;;
1725;SDS011;41776;48.260;8.928;2022-07-29T15:02:48;7.32;;;1.92;;
1725;SDS011;41776;48.260;8.928;2022-07-29T15:05:14;7.40;;;1.98;;
1725;SDS011;41776;48.260;8.928;2022-07-29T15:07:41;3.45;;;1.73;;
1725;SDS011;41776;48.260;8.928;2022-07-29T15:10:09;7.28;;;2.00;;
1725;SDS011;41776;48.260;8.928;2022-07-29T15:12:35;2.75;;;1.83;;
1725;SDS011;41776;48.260;8.928;2022-07-29T15:15:02;5.60;;;1.80;;
1725;SDS011;41776;48.260;8.928;2022-07-29T15:17:29;4.35;;;1.80;;
1725;SDS011;41776;48.260;8.928;2022-07-29T15:19:55;2.25;;;1.63;;
1725;SDS011;41776;48.260;8.928;2022-07-29T15:22:22;3.75;;;2.08;;
1725;SDS011;41776;48.260;8.928;2022-07-29T15:24:48;5.13;;;2.10;;
1725;SDS011;41776;48.260;8.928;2022-07-29T15:27:16;5.47;;;2.40;;
1725;SDS011;41776;48.260;8.928;2022-07-29T15:29:42;3.33;;;1.90;;